Time;durP1;ratioP1;P1;durP2;ratioP2;P2;SDS_P1;SDS_P2;PMS_P1;PMS_P2;Temp;Humidity;BMP_temperature;BMP_pressure;BME280_temperature;BME280_humidity;BME280_pressure;Samples;Min_cycle;Max_cycle;Signal;HPM_P1;HPM_P2
2023/09/01 00:00:30;;;;;;;6.13;1.77;;;14.60;82.80;;;;;;5023934;28;20086;-81
2023/09/01 00:02:56;;;;;;;3.00;1.40;;;14.60;83.30;;;;;;5009405;28;20056;-82
2023/09/01 00:05:21;;;;;;;3.72;1.60;;;14.60;83.80;;;;;;5022937;28;20079;-82
2023/09/01 00:07:47;;;;;;;3.75;1.33;;;14.50;84.10;;;;;;5039657;28;20048;-83
2023/09/01 00:10:13;;;;;;;3.70;1.58;;;14.50;84.50;;;;;;5019416;28;20051;-82
2023/09/01 00:12:39;;;;;;;5.07;1.50;;;14.40;84.80;;;;;;5018091;28;20056;-80
2023/09/01 00:15:05;;;;;;;3.05;1.25;;;14.20;85.00;;;;;;5006274;28;20049;-80
2023/09/01 00:17:31;;;;;;;3.75;1.35;;;14.30;85.30;;;;;;5016998;28;20110;-81
2023/09/01 00:19:57;;;;;;;3.75;2.05;;;14.30;85.70;;;;;;5023406;28;20537;-81
2023/09/01 00:22:23;;;;;;;4.68;1.70;;;14.20;86.10;;;;;;5017803;28;20136;-80
2023/09/01 00:24:48;;;;;;;3.22;1.73;;;14.20;86.50;;;;;;5023773;28;20105;-80
2023/09/01 00:27:14;;;;;;;4.20;1.85;;;14.20;86.90;;;;;;5038724;28;20702;-81
2023/09/01 00:29:40;;;;;;;4.03;1.90;;;14.10;87.20;;;;;;5003991;28;20061;-81
2023/09/01 00:32:06;;;;;;;3.42;1.88;;;14.10;87.50;;;;;;5018357;28;20047;-81
2023/09/01 00:34:32;;;;;;;3.55;1.73;;;14.00;88.00;;;;;;5021705;28;20094;-81
2023/09/01 00:36:58;;;;;;;5.32;2.00;;;14.00;88.60;;;;;;5001521;28;22085;-81
2023/09/01 00:39:24;;;;;;;3.03;1.98;;;14.00;89.10;;;;;;5024251;28;20051;-81
2023/09/01 00:41:50;;;;;;;5.90;2.25;;;13.90;89.70;;;;;;5020115;28;20553;-81
2023/09/01 00:44:15;;;;;;;3.95;2.30;;;13.90;90.00;;;;;;4988131;28;20548;-79
2023/09/01 00:46:46;;;;;;;4.55;2.47;;;13.80;90.20;;;;;;5016338;28;20085;-81
2023/09/01 00:49:12;;;;;;;4.40;2.17;;;13.80;90.50;;;;;;5019822;28;20039;-80
2023/09/01 00:51:38;;;;;;;6.43;2.10;;;13.70;90.70;;;;;;5018118;28;20586;-79
2023/09/01 00:54:05;;;;;;;4.25;2.35;;;13.70;91.00;;;;;;5016400;28;20051;-82
2023/09/01 00:56:31;;;;;;;4.43;2.40;;;13.70;91.20;;;;;;5032530;28;20183;-80
2023/09/01 00:58:57;;;;;;;5.25;2.55;;;13.70;91.30;;;;;;5015871;28;20056;-81
2023/09/01 01:01:23;;;;;;;3.33;2.03;;;13.60;91.50;;;;;;5021404;28;20056;-81
2023/09/01 01:03:51;;;;;;;5.18;2.40;;;13.60;91.70;;;;;;5003979;28;20479;-79
2023/09/01 01:06:29;;;;;;;5.20;2.13;;;13.50;91.90;;;;;;5020966;28;20557;-81
2023/09/01 01:09:22;;;;;;;5.25;2.30;;;13.50;92.30;;;;;;5020259;28;20045;-81
2023/09/01 01:12:07;;;;;;;4.35;2.38;;;13.40;92.40;;;;;;5025589;28;20476;-80
2023/09/01 01:14:47;;;;;;;5.20;2.47;;;13.40;92.50;;;;;;5022809;28;20044;-83
2023/09/01 01:17:18;;;;;;;4.63;2.60;;;13.40;92.60;;;;;;5024363;28;20493;-82
2023/09/01 01:19:53;;;;;;;5.93;2.85;;;13.30;92.60;;;;;;4986823;28;20589;-82
2023/09/01 01:22:39;;;;;;;4.78;2.75;;;13.30;92.80;;;;;;5023501;28;20050;-81
2023/09/01 01:25:09;;;;;;;7.10;3.38;;;13.30;92.90;;;;;;5018781;28;20072;-82
2023/09/01 01:27:36;;;;;;;4.63;2.80;;;13.20;92.90;;;;;;5021804;28;20048;-83
2023/09/01 01:30:02;;;;;;;5.07;3.17;;;13.20;93.00;;;;;;5004559;28;20442;-82
2023/09/01 01:32:28;;;;;;;5.78;3.28;;;13.20;93.10;;;;;;5016701;28;20051;-82
2023/09/01 01:35:04;;;;;;;6.85;3.40;;;13.10;93.20;;;;;;5007174;28;20052;-82
2023/09/01 01:37:41;;;;;;;5.85;3.28;;;13.10;93.40;;;;;;5029656;28;20221;-80
2023/09/01 01:40:08;;;;;;;6.57;2.75;;;13.20;93.50;;;;;;5027737;28;20125;-76
2023/09/01 01:42:36;;;;;;;5.28;3.00;;;13.00;93.50;;;;;;5010061;28;20054;-78
2023/09/01 01:45:04;;;;;;;5.95;2.90;;;13.00;93.60;;;;;;5005883;28;20128;-78
2023/09/01 01:47:32;;;;;;;7.15;3.05;;;13.00;93.70;;;;;;5009116;28;20049;-80
2023/09/01 01:49:58;;;;;;;5.75;3.00;;;12.90;93.80;;;;;;5008052;28;20055;-79
2023/09/01 01:52:23;;;;;;;6.65;3.60;;;12.90;93.80;;;;;;5003649;28;20130;-82
2023/09/01 01:54:49;;;;;;;5.45;3.42;;;12.90;93.90;;;;;;5004129;28;20066;-81
2023/09/01 01:57:15;;;;;;;6.25;3.78;;;12.90;94.00;;;;;;5042484;28;20051;-82
2023/09/01 01:59:42;;;;;;;5.45;3.60;;;12.80;94.10;;;;;;5005231;28;20068;-83
2023/09/01 02:02:07;;;;;;;5.88;3.22;;;12.80;94.10;;;;;;5005186;28;20048;-81
2023/09/01 02:04:33;;;;;;;6.53;3.33;;;12.80;94.20;;;;;;5037668;28;20079;-81
2023/09/01 02:06:59;;;;;;;5.60;3.33;;;12.80;94.20;;;;;;5020455;28;20487;-81
2023/09/01 02:09:26;;;;;;;7.00;3.58;;;12.80;94.30;;;;;;5023209;28;20491;-80
2023/09/01 02:11:52;;;;;;;6.15;3.20;;;12.70;94.40;;;;;;5009839;28;20048;-80
2023/09/01 02:14:18;;;;;;;6.15;3.33;;;12.70;94.40;;;;;;5022227;28;20475;-81
2023/09/01 02:16:44;;;;;;;6.25;3.22;;;12.60;94.80;;;;;;5028745;28;20072;-80
2023/09/01 02:19:11;;;;;;;7.15;3.33;;;12.60;94.60;;;;;;5025763;28;20855;-81
2023/09/01 02:21:37;;;;;;;5.45;3.30;;;12.60;94.70;;;;;;5011059;28;20155;-81
2023/09/01 02:24:05;;;;;;;4.35;2.90;;;12.50;94.80;;;;;;5006257;28;20055;-80
2023/09/01 02:26:31;;;;;;;8.60;3.63;;;12.50;94.90;;;;;;5008981;28;20071;-81
2023/09/01 02:28:57;;;;;;;6.60;2.85;;;12.50;95.00;;;;;;5032961;28;20032;-81
2023/09/01 02:31:24;;;;;;;5.18;3.40;;;12.50;95.00;;;;;;5026495;28;20565;-80
2023/09/01 02:33:50;;;;;;;4.97;3.58;;;12.50;95.10;;;;;;5022233;28;20554;-80
2023/09/01 02:36:34;;;;;;;4.85;3.47;;;12.50;95.20;;;;;;5042000;28;20056;-82
2023/09/01 02:39:00;;;;;;;7.28;3.53;;;12.40;95.40;;;;;;5021788;28;20830;-83
2023/09/01 02:41:26;;;;;;;6.07;3.03;;;12.40;95.40;;;;;;5023681;28;20040;-85
2023/09/01 02:43:53;;;;;;;3.80;2.83;;;12.30;95.50;;;;;;5010311;28;20472;-79
2023/09/01 02:46:20;;;;;;;4.70;3.10;;;12.30;95.60;;;;;;5006537;28;20072;-84
2023/09/01 02:48:46;;;;;;;5.90;2.97;;;12.30;95.60;;;;;;5010484;28;20060;-85
2023/09/01 02:51:12;;;;;;;6.20;3.13;;;12.20;95.60;;;;;;5022366;28;20086;-85
2023/09/01 02:53:38;;;;;;;6.45;3.28;;;12.20;95.70;;;;;;5018335;28;20064;-81
2023/09/01 02:56:05;;;;;;;4.30;3.10;;;12.20;95.80;;;;;;4991410;28;20052;-81
2023/09/01 02:58:31;;;;;;;5.97;3.25;;;12.10;95.80;;;;;;5020351;28;20044;-81
2023/09/01 03:00:57;;;;;;;9.10;3.22;;;12.10;95.80;;;;;;5021510;28;20131;-82
2023/09/01 03:03:24;;;;;;;4.55;2.88;;;12.10;95.90;;;;;;5002286;28;20611;-82
2023/09/01 03:05:51;;;;;;;6.57;3.50;;;12.00;95.90;;;;;;5024369;28;23277;-82
2023/09/01 03:08:18;;;;;;;6.05;3.40;;;12.00;96.00;;;;;;5003588;28;20604;-82
2023/09/01 03:10:44;;;;;;;5.93;3.47;;;12.00;96.10;;;;;;5006992;28;20474;-82
2023/09/01 03:13:09;;;;;;;4.10;3.05;;;12.00;96.30;;;;;;5022892;28;20126;-80
2023/09/01 03:15:35;;;;;;;5.53;2.97;;;12.00;96.30;;;;;;5027165;28;20045;-81
2023/09/01 03:18:02;;;;;;;4.90;3.05;;;12.00;96.40;;;;;;5019111;28;20140;-81
2023/09/01 03:20:28;;;;;;;7.53;3.42;;;11.90;96.50;;;;;;5008551;28;20050;-81
2023/09/01 03:22:54;;;;;;;4.57;3.00;;;11.90;96.60;;;;;;5002449;28;20222;-81
2023/09/01 03:25:19;;;;;;;4.97;3.20;;;11.90;96.70;;;;;;5021206;28;20463;-80
2023/09/01 03:27:45;;;;;;;4.40;2.88;;;11.80;96.80;;;;;;5006807;28;20068;-81
2023/09/01 03:30:12;;;;;;;4.20;3.22;;;11.70;97.20;;;;;;5024073;28;20101;-81
2023/09/01 03:32:38;;;;;;;5.97;3.45;;;11.70;97.10;;;;;;5011403;28;20044;-82
2023/09/01 03:35:05;;;;;;;4.90;3.33;;;11.30;97.20;;;;;;5017434;28;20460;-81
2023/09/01 03:37:31;;;;;;;5.00;3.15;;;11.50;97.30;;;;;;5019495;28;20060;-82
2023/09/01 03:39:57;;;;;;;4.88;3.20;;;11.60;97.40;;;;;;4999217;28;20048;-83
2023/09/01 03:42:23;;;;;;;5.40;3.53;;;11.60;97.50;;;;;;5006071;28;20543;-81
2023/09/01 03:44:49;;;;;;;5.40;3.40;;;11.50;97.50;;;;;;5004548;28;20556;-82
2023/09/01 03:47:15;;;;;;;5.13;3.22;;;11.50;97.50;;;;;;5016297;28;20048;-80
2023/09/01 03:49:41;;;;;;;6.70;3.25;;;11.50;97.60;;;;;;5004617;28;20186;-81
2023/09/01 03:52:07;;;;;;;7.28;3.50;;;11.40;97.60;;;;;;5019508;28;20119;-82
2023/09/01 03:54:33;;;;;;;4.28;3.10;;;11.40;97.60;;;;;;5021661;28;21050;-81
2023/09/01 03:56:59;;;;;;;7.35;3.95;;;11.40;97.70;;;;;;5034033;28;20051;-81
2023/09/01 03:59:25;;;;;;;6.88;3.67;;;11.40;97.70;;;;;;5019794;28;20044;-81
2023/09/01 04:01:51;;;;;;;5.53;3.85;;;11.40;97.80;;;;;;5020165;28;20041;-81
2023/09/01 04:04:17;;;;;;;7.43;4.20;;;10.90;97.70;;;;;;5021789;28;22037;-79
2023/09/01 04:06:44;;;;;;;6.03;4.28;;;11.40;97.90;;;;;;5017367;28;21058;-79
2023/09/01 04:09:11;;;;;;;7.70;4.28;;;11.40;98.10;;;;;;5004422;28;20487;-80
2023/09/01 04:11:37;;;;;;;5.80;4.63;;;11.40;98.20;;;;;;5037192;28;20047;-76
2023/09/01 04:14:03;;;;;;;6.55;4.50;;;11.40;98.30;;;;;;5037859;28;20048;-81
2023/09/01 04:16:29;;;;;;;6.55;4.40;;;11.40;98.70;;;;;;4993555;28;20033;-82
2023/09/01 04:18:55;;;;;;;6.85;4.35;;;11.40;98.60;;;;;;5020046;28;20048;-82
2023/09/01 04:21:21;;;;;;;5.20;3.88;;;11.30;98.60;;;;;;5016703;28;20168;-80
2023/09/01 04:23:47;;;;;;;8.25;4.78;;;11.40;98.80;;;;;;5003611;28;20040;-80
2023/09/01 04:26:13;;;;;;;8.68;4.60;;;11.30;98.90;;;;;;5022827;28;20177;-79
2023/09/01 04:28:39;;;;;;;6.13;4.57;;;11.30;99.00;;;;;;4996454;28;20048;-80
2023/09/01 04:31:16;;;;;;;7.72;4.18;;;11.30;99.20;;;;;;5018007;28;20048;-81
2023/09/01 04:33:42;;;;;;;7.32;4.70;;;11.20;99.30;;;;;;5018303;28;20064;-79
2023/09/01 04:36:08;;;;;;;6.57;4.03;;;11.30;99.30;;;;;;4986504;28;20132;-79
2023/09/01 04:38:34;;;;;;;7.35;4.13;;;11.30;99.50;;;;;;5008148;28;20089;-80
2023/09/01 04:41:01;;;;;;;6.18;3.92;;;11.30;99.50;;;;;;5019580;28;20036;-79
2023/09/01 04:43:27;;;;;;;5.15;3.78;;;11.20;99.50;;;;;;5019294;28;20565;-80
2023/09/01 04:45:53;;;;;;;6.75;3.85;;;11.20;99.60;;;;;;5035565;28;20075;-79
2023/09/01 04:48:20;;;;;;;5.65;3.70;;;11.20;99.60;;;;;;4999740;28;20066;-79
2023/09/01 04:50:47;;;;;;;8.13;3.83;;;11.20;99.60;;;;;;4998822;28;20040;-79
2023/09/01 04:53:13;;;;;;;6.45;3.80;;;11.10;99.70;;;;;;5014225;28;20083;-79
2023/09/01 04:55:38;;;;;;;7.85;4.60;;;11.20;99.70;;;;;;4995093;28;20189;-79
2023/09/01 04:58:04;;;;;;;7.85;4.20;;;11.20;99.80;;;;;;5018760;28;22012;-79
2023/09/01 05:00:30;;;;;;;6.43;4.80;;;11.20;99.80;;;;;;4997561;28;20748;-79
2023/09/01 05:02:56;;;;;;;7.93;4.90;;;11.20;99.80;;;;;;5015125;28;20053;-79
2023/09/01 05:05:22;;;;;;;12.70;5.05;;;11.20;99.90;;;;;;5013864;28;20368;-79
2023/09/01 05:07:48;;;;;;;8.60;5.03;;;11.20;99.90;;;;;;5016855;28;20041;-80
2023/09/01 05:10:13;;;;;;;6.80;5.30;;;11.20;99.90;;;;;;5017748;28;20049;-79
2023/09/01 05:12:39;;;;;;;7.70;4.65;;;11.20;99.90;;;;;;5022366;28;20132;-80
2023/09/01 05:15:05;;;;;;;7.75;4.88;;;11.30;99.90;;;;;;5018866;28;20079;-80
2023/09/01 05:17:31;;;;;;;6.53;5.20;;;11.30;99.90;;;;;;4990685;28;20051;-79
2023/09/01 05:19:58;;;;;;;9.15;5.20;;;11.30;99.90;;;;;;5020664;28;20306;-79
2023/09/01 05:22:24;;;;;;;7.60;4.97;;;11.40;99.90;;;;;;5022669;28;20058;-79
2023/09/01 05:24:50;;;;;;;7.65;5.28;;;11.40;99.90;;;;;;5028460;28;20052;-80
2023/09/01 05:27:19;;;;;;;7.82;5.13;;;11.50;99.90;;;;;;5020990;28;20062;-79
2023/09/01 05:29:51;;;;;;;7.45;5.07;;;11.50;99.90;;;;;;4994061;28;20052;-80
2023/09/01 05:32:18;;;;;;;8.52;5.18;;;11.50;99.90;;;;;;5019482;28;20430;-80
2023/09/01 05:34:44;;;;;;;6.32;4.90;;;11.60;99.90;;;;;;5020405;28;20391;-81
2023/09/01 05:37:14;;;;;;;7.78;5.13;;;11.60;99.90;;;;;;5022226;28;20048;-78
2023/09/01 05:39:41;;;;;;;6.55;4.72;;;11.60;99.90;;;;;;5019514;28;20047;-81
2023/09/01 05:42:07;;;;;;;8.75;5.07;;;11.70;99.90;;;;;;5018405;28;20078;-79
2023/09/01 05:44:33;;;;;;;6.78;4.40;;;11.80;99.90;;;;;;5007796;28;20846;-81
2023/09/01 05:46:59;;;;;;;5.70;4.40;;;11.80;99.90;;;;;;5039116;28;20473;-86
2023/09/01 05:49:25;;;;;;;5.68;4.32;;;11.80;99.90;;;;;;5008782;28;20098;-83
2023/09/01 05:51:51;;;;;;;6.05;4.90;;;11.90;99.90;;;;;;5004969;28;20135;-82
2023/09/01 05:54:18;;;;;;;6.40;4.82;;;11.90;99.90;;;;;;5006384;28;20466;-80
2023/09/01 05:56:45;;;;;;;6.82;4.72;;;12.00;99.90;;;;;;5027506;28;20052;-82
2023/09/01 05:59:11;;;;;;;6.25;4.55;;;12.00;99.90;;;;;;5011169;28;20044;-79
2023/09/01 06:01:38;;;;;;;6.20;4.30;;;12.10;99.90;;;;;;5024403;28;20078;-81
2023/09/01 06:04:04;;;;;;;6.43;4.40;;;12.10;99.90;;;;;;5028396;28;20466;-79
2023/09/01 06:06:35;;;;;;;6.60;4.70;;;12.20;99.90;;;;;;5024038;28;20157;-81
2023/09/01 06:09:04;;;;;;;6.53;4.50;;;12.20;99.90;;;;;;5023004;28;20045;-80
2023/09/01 06:11:30;;;;;;;8.68;5.30;;;12.30;99.90;;;;;;5025226;28;20049;-80
2023/09/01 06:13:58;;;;;;;6.82;5.13;;;12.40;99.90;;;;;;4988405;28;20053;-80
2023/09/01 06:16:25;;;;;;;8.95;4.47;;;11.80;99.90;;;;;;5022727;28;20575;-79
2023/09/01 06:18:52;;;;;;;7.68;4.82;;;12.50;99.90;;;;;;5007971;28;20052;-80
2023/09/01 06:21:18;;;;;;;6.68;4.82;;;12.50;99.90;;;;;;5007562;28;20452;-81
2023/09/01 06:23:44;;;;;;;10.32;5.18;;;12.50;99.90;;;;;;5005462;28;20297;-80
2023/09/01 06:26:14;;;;;;;7.55;4.90;;;12.60;99.90;;;;;;5046073;28;20376;-81
2023/09/01 06:28:40;;;;;;;7.30;4.45;;;12.70;99.90;;;;;;5023460;28;20041;-80
2023/09/01 06:31:09;;;;;;;9.88;4.80;;;12.80;99.90;;;;;;5039120;28;20058;-79
2023/09/01 06:33:35;;;;;;;5.82;4.28;;;12.80;99.90;;;;;;5037214;28;20094;-79
2023/09/01 06:36:02;;;;;;;7.57;4.70;;;12.90;99.90;;;;;;5026433;28;20060;-79
2023/09/01 06:38:27;;;;;;;7.35;4.70;;;13.00;99.90;;;;;;5024147;28;20068;-79
2023/09/01 06:40:53;;;;;;;6.60;4.30;;;13.10;99.90;;;;;;5006482;28;20163;-79
2023/09/01 06:43:19;;;;;;;6.15;4.13;;;13.20;99.90;;;;;;5027684;28;20096;-80
2023/09/01 06:45:45;;;;;;;6.65;4.47;;;13.20;99.90;;;;;;5028395;28;20059;-79
2023/09/01 06:48:10;;;;;;;7.78;4.22;;;13.30;99.90;;;;;;5027145;28;20048;-79
2023/09/01 06:50:39;;;;;;;7.60;4.70;;;13.40;99.90;;;;;;4994766;28;21783;-79
2023/09/01 06:53:05;;;;;;;8.35;5.32;;;13.60;99.90;;;;;;5010790;28;20413;-79
2023/09/01 06:55:31;;;;;;;7.03;4.88;;;13.70;99.90;;;;;;5014961;28;20043;-79
2023/09/01 06:57:57;;;;;;;6.88;4.57;;;13.80;99.90;;;;;;5028090;28;20149;-79
2023/09/01 07:00:23;;;;;;;5.85;4.65;;;13.90;99.90;;;;;;5028865;28;20055;-79
2023/09/01 07:02:49;;;;;;;7.65;4.60;;;14.00;99.90;;;;;;5026646;28;20182;-77
2023/09/01 07:05:16;;;;;;;7.20;4.70;;;14.10;99.90;;;;;;5023676;28;20057;-79
2023/09/01 07:07:42;;;;;;;7.72;4.38;;;14.20;99.90;;;;;;5031085;28;20457;-80
2023/09/01 07:10:08;;;;;;;7.32;4.60;;;14.40;99.90;;;;;;5033840;28;20041;-79
2023/09/01 07:12:34;;;;;;;6.60;4.45;;;14.50;99.90;;;;;;5017358;28;20041;-79
2023/09/01 07:15:04;;;;;;;5.32;4.20;;;14.50;99.90;;;;;;5047690;28;20687;-79
2023/09/01 07:17:30;;;;;;;6.28;4.43;;;14.60;99.90;;;;;;5029750;28;20048;-79
2023/09/01 07:19:56;;;;;;;6.72;4.18;;;14.70;99.90;;;;;;5022422;28;20036;-80
2023/09/01 07:22:22;;;;;;;8.32;4.40;;;14.80;99.90;;;;;;5028696;28;20049;-80
2023/09/01 07:24:47;;;;;;;6.28;3.90;;;14.80;99.90;;;;;;5048362;28;20040;-79
2023/09/01 07:27:13;;;;;;;8.50;4.18;;;14.90;99.90;;;;;;5044191;28;20193;-79
2023/09/01 07:29:39;;;;;;;7.63;3.90;;;14.90;99.90;;;;;;5027441;28;20069;-79
2023/09/01 07:32:05;;;;;;;8.05;4.22;;;15.00;99.90;;;;;;5031304;28;20075;-79
2023/09/01 07:34:32;;;;;;;7.05;4.07;;;15.10;99.90;;;;;;5032636;28;20492;-78
2023/09/01 07:36:57;;;;;;;7.57;4.20;;;15.10;99.90;;;;;;5017269;28;20055;-78
2023/09/01 07:39:23;;;;;;;10.10;4.07;;;15.20;99.90;;;;;;5016692;28;20487;-78
2023/09/01 07:41:49;;;;;;;6.07;3.80;;;15.20;99.90;;;;;;4995552;28;20047;-78
2023/09/01 07:44:16;;;;;;;6.78;3.53;;;15.20;99.90;;;;;;5009987;28;20531;-79
2023/09/01 07:46:43;;;;;;;5.22;3.05;;;15.40;99.90;;;;;;5010644;28;20427;-79
2023/09/01 07:49:08;;;;;;;4.65;3.60;;;15.40;99.90;;;;;;4995195;28;20223;-78
2023/09/01 07:51:34;;;;;;;8.23;3.63;;;15.50;99.90;;;;;;5025966;28;20044;-79
2023/09/01 07:54:00;;;;;;;8.00;3.78;;;15.70;99.90;;;;;;4995974;28;20040;-78
2023/09/01 07:56:26;;;;;;;6.53;3.58;;;15.70;99.70;;;;;;5016249;28;20048;-78
2023/09/01 07:58:52;;;;;;;7.20;3.50;;;15.80;99.50;;;;;;5030237;28;20438;-79
2023/09/01 08:01:17;;;;;;;6.25;3.55;;;15.90;99.40;;;;;;5032024;28;20537;-79
2023/09/01 08:03:43;;;;;;;5.60;3.67;;;15.90;99.30;;;;;;5033104;28;20048;-79
2023/09/01 08:06:09;;;;;;;7.70;3.83;;;16.00;99.20;;;;;;5029791;28;20142;-80
2023/09/01 08:08:35;;;;;;;5.55;3.72;;;16.00;99.10;;;;;;5017067;28;20057;-80
2023/09/01 08:11:01;;;;;;;6.18;3.95;;;16.10;99.00;;;;;;4998640;28;20079;-79
2023/09/01 08:13:27;;;;;;;6.55;3.83;;;16.10;99.00;;;;;;5015079;28;20049;-79
2023/09/01 08:15:53;;;;;;;7.45;3.80;;;16.10;98.90;;;;;;5032058;28;20711;-80
2023/09/01 08:18:19;;;;;;;5.63;3.75;;;16.20;98.80;;;;;;5047238;28;20137;-80
2023/09/01 08:20:45;;;;;;;6.05;3.90;;;16.20;98.60;;;;;;5028563;28;20049;-79
2023/09/01 08:23:11;;;;;;;6.47;3.60;;;16.20;98.50;;;;;;5031436;28;20055;-79
2023/09/01 08:25:37;;;;;;;7.13;3.85;;;16.30;98.40;;;;;;5036684;28;20076;-78
2023/09/01 08:28:04;;;;;;;7.28;3.83;;;16.30;98.30;;;;;;5043930;28;20446;-79
2023/09/01 08:30:30;;;;;;;5.03;3.70;;;16.30;98.10;;;;;;5025847;28;20078;-79
2023/09/01 08:32:56;;;;;;;4.95;3.47;;;16.40;98.00;;;;;;5009986;28;20041;-80
2023/09/01 08:35:22;;;;;;;7.05;3.80;;;16.40;97.90;;;;;;5024941;28;20055;-80
2023/09/01 08:37:48;;;;;;;7.68;3.35;;;16.50;97.80;;;;;;5026870;28;20044;-77
2023/09/01 08:40:14;;;;;;;6.25;2.88;;;16.50;97.50;;;;;;5023911;28;20558;-80
2023/09/01 08:42:46;;;;;;;4.88;3.28;;;16.50;97.20;;;;;;5028089;28;20066;-77
2023/09/01 08:45:14;;;;;;;6.32;3.10;;;16.60;97.00;;;;;;5031935;28;20368;-78
2023/09/01 08:47:45;;;;;;;6.07;3.30;;;16.60;96.90;;;;;;5031110;28;20127;-78
2023/09/01 08:50:13;;;;;;;4.70;3.40;;;16.80;96.80;;;;;;5031697;28;20074;-77
2023/09/01 08:52:40;;;;;;;6.63;3.65;;;16.40;96.60;;;;;;5015844;28;20041;-78
2023/09/01 08:55:06;;;;;;;8.80;3.65;;;16.90;96.60;;;;;;5029490;28;20040;-78
2023/09/01 08:57:33;;;;;;;9.30;3.28;;;17.00;96.40;;;;;;5034308;28;20044;-78
2023/09/01 08:59:58;;;;;;;5.40;3.28;;;17.10;96.10;;;;;;5035223;28;20049;-79
2023/09/01 09:02:24;;;;;;;5.65;3.30;;;17.10;95.80;;;;;;5033273;28;21124;-78
2023/09/01 09:04:50;;;;;;;5.45;3.17;;;17.30;95.60;;;;;;5018303;28;20986;-78
2023/09/01 09:07:22;;;;;;;6.20;3.15;;;17.40;95.40;;;;;;5030396;28;20491;-78
2023/09/01 09:09:56;;;;;;;4.18;2.60;;;17.50;94.90;;;;;;5031470;28;20044;-77
2023/09/01 09:12:37;;;;;;;6.82;2.65;;;17.70;94.50;;;;;;5046945;28;20059;-78
2023/09/01 09:15:04;;;;;;;5.15;2.50;;;17.90;94.00;;;;;;5030797;28;20124;-78
2023/09/01 09:17:44;;;;;;;4.80;2.30;;;18.10;93.60;;;;;;5028554;28;20045;-79
2023/09/01 09:20:15;;;;;;;7.53;2.20;;;18.30;92.80;;;;;;5035291;28;20048;-78
2023/09/01 09:22:56;;;;;;;3.55;2.03;;;18.40;92.20;;;;;;5012415;28;20072;-78
2023/09/01 09:25:26;;;;;;;5.22;2.10;;;18.60;91.60;;;;;;5044673;28;20061;-78
2023/09/01 09:27:54;;;;;;;4.32;1.98;;;18.70;91.20;;;;;;5035995;28;20071;-79
2023/09/01 09:30:20;;;;;;;5.72;1.80;;;18.90;90.50;;;;;;5011453;28;20044;-79
2023/09/01 09:32:48;;;;;;;5.68;1.98;;;19.10;89.70;;;;;;5008557;28;21908;-79
2023/09/01 09:35:15;;;;;;;4.22;1.80;;;19.30;87.90;;;;;;5031744;28;20087;-80
2023/09/01 09:37:42;;;;;;;6.72;2.00;;;19.60;86.20;;;;;;5027992;28;20101;-78
2023/09/01 09:40:13;;;;;;;2.38;1.45;;;19.70;83.80;;;;;;5027788;28;20079;-80
2023/09/01 09:42:41;;;;;;;4.40;2.00;;;19.90;81.30;;;;;;4994259;28;20345;-79
2023/09/01 09:45:26;;;;;;;4.72;1.83;;;20.10;80.10;;;;;;5023798;28;20056;-79
2023/09/01 09:47:58;;;;;;;3.53;1.95;;;20.30;74.20;;;;;;5022005;28;20055;-80
2023/09/01 09:50:24;;;;;;;3.92;1.70;;;20.50;75.30;;;;;;5028818;28;20360;-79
2023/09/01 09:52:57;;;;;;;5.88;1.92;;;20.60;73.00;;;;;;5027727;28;20045;-79
2023/09/01 09:55:33;;;;;;;5.22;2.05;;;20.70;70.40;;;;;;5005584;28;20060;-79
2023/09/01 09:58:09;;;;;;;5.32;1.80;;;20.70;67.90;;;;;;5019863;28;20475;-79
2023/09/01 10:00:40;;;;;;;;;;;20.80;63.90;;;;;;5027678;28;20087;-79
2023/09/01 10:03:07;;;;;;;3.35;1.75;;;20.80;53.00;;;;;;5029145;28;19924;-79
2023/09/01 10:05:34;;;;;;;3.17;1.20;;;20.80;67.60;;;;;;5023705;28;20094;-79
2023/09/01 10:08:06;;;;;;;5.38;1.70;;;20.80;64.20;;;;;;5004578;28;20045;-79
2023/09/01 10:10:33;;;;;;;3.92;1.75;;;20.80;60.70;;;;;;5007565;28;20554;-78
2023/09/01 10:13:06;;;;;;;4.07;1.52;;;20.70;61.00;;;;;;5026108;28;20072;-79
2023/09/01 10:15:33;;;;;;;3.08;1.60;;;20.70;58.90;;;;;;5007728;28;20155;-78
2023/09/01 10:18:04;;;;;;;3.70;1.30;;;20.80;58.80;;;;;;5024306;28;20123;-78
2023/09/01 10:20:35;;;;;;;3.30;1.52;;;20.80;58.40;;;;;;5044917;28;20045;-78
2023/09/01 10:23:03;;;;;;;4.75;1.98;;;20.90;58.10;;;;;;5011360;28;20076;-78
2023/09/01 10:25:29;;;;;;;4.30;1.70;;;20.90;58.10;;;;;;5021321;28;20060;-78
2023/09/01 10:28:14;;;;;;;3.03;1.38;;;21.10;56.70;;;;;;5050838;28;20132;-78
2023/09/01 10:30:45;;;;;;;6.30;1.52;;;21.20;50.60;;;;;;5032474;28;20282;-78
2023/09/01 10:33:25;;;;;;;2.33;1.00;;;21.20;50.50;;;;;;5024879;28;20036;-78
2023/09/01 10:35:53;;;;;;;3.72;1.40;;;21.20;48.40;;;;;;5024599;28;20056;-78
2023/09/01 10:38:37;;;;;;;6.95;1.50;;;21.20;48.40;;;;;;5011395;28;20046;-78
2023/09/01 10:41:03;;;;;;;4.20;1.30;;;21.20;42.20;;;;;;5039519;28;20048;-79
2023/09/01 10:48:57;;;;;;;4.22;1.38;;;21.20;40.20;;;;;;5052175;28;20056;-78
2023/09/01 10:51:33;;;;;;;5.10;1.30;;;21.30;39.40;;;;;;5049370;28;20032;-78
2023/09/01 10:54:02;;;;;;;;;;;21.30;35.90;;;;;;5029915;28;20131;-79
2023/09/01 10:56:30;;;;;;;4.13;1.50;;;21.30;27.70;;;;;;5032814;28;20394;-79
2023/09/01 10:58:58;;;;;;;3.97;1.15;;;21.40;42.40;;;;;;5029072;28;20087;-78
2023/09/01 11:01:25;;;;;;;4.65;1.30;;;21.50;39.10;;;;;;5049842;28;20125;-78
2023/09/01 11:03:52;;;;;;;4.80;1.33;;;21.40;32.70;;;;;;5013974;28;20060;-79
2023/09/01 11:06:17;;;;;;;6.43;1.30;;;21.40;31.60;;;;;;5031302;28;20087;-79
2023/09/01 11:09:00;;;;;;;2.90;1.30;;;21.40;29.30;;;;;;5028421;28;20052;-79
2023/09/01 11:11:27;;;;;;;3.55;1.35;;;21.40;24.20;;;;;;5031264;28;20226;-79
2023/09/01 11:14:00;;;;;;;2.80;1.30;;;21.30;27.90;;;;;;5034443;28;20480;-79
2023/09/01 11:16:26;;;;;;;34.35;5.35;;;21.30;23.60;;;;;;5025182;28;20080;-80
2023/09/01 11:19:02;;;;;;;4.00;1.58;;;21.30;23.40;;;;;;5027687;28;20490;-79
2023/09/01 11:21:28;;;;;;;;;;;21.40;19.90;;;;;;5024106;28;20774;-80
2023/09/01 11:24:01;;;;;;;4.78;1.50;;;21.50;10.70;;;;;;5026338;28;20015;-79
2023/09/01 11:26:27;;;;;;;4.65;1.50;;;21.70;20.10;;;;;;5006381;28;20049;-79
2023/09/01 11:28:55;;;;;;;5.75;1.60;;;21.80;13.00;;;;;;5024308;28;20056;-79
2023/09/01 11:31:21;;;;;;;7.68;2.08;;;21.90;10.40;;;;;;5013099;28;20140;-79
2023/09/01 11:33:52;;;;;;;6.85;2.20;;;21.90;7.40;;;;;;5024113;28;20044;-79
2023/09/01 11:36:18;;;;;;;6.45;2.10;;;22.10;4.40;;;;;;5024697;28;20135;-79
2023/09/01 11:38:44;;;;;;;5.03;2.03;;;22.20;2.70;;;;;;5006209;28;20048;-79
2023/09/01 11:41:16;;;;;;;21.90;4.30;;;22.30;1.00;;;;;;5043660;28;20105;-80
2023/09/01 11:43:42;;;;;;;5.45;2.58;;;22.50;1.00;;;;;;5014311;28;20048;-80
2023/09/01 11:46:10;;;;;;;4.68;2.30;;;22.80;1.00;;;;;;5017622;28;20063;-80
2023/09/01 11:48:36;;;;;;;5.82;2.00;;;23.10;1.00;;;;;;5040013;28;20196;-80
2023/09/01 11:51:02;;;;;;;4.68;2.25;;;23.40;1.00;;;;;;5026828;28;20579;-81
2023/09/01 11:53:29;;;;;;;4.32;2.08;;;23.40;1.00;;;;;;5028483;28;20040;-80
2023/09/01 11:56:00;;;;;;;5.65;2.40;;;23.60;1.00;;;;;;5030161;28;20135;-81
2023/09/01 11:58:48;;;;;;;5.57;2.20;;;23.90;1.00;;;;;;4987780;28;20059;-80
2023/09/01 12:01:16;;;;;;;8.10;2.45;;;24.10;1.00;;;;;;5013861;28;20047;-79
2023/09/01 12:04:03;;;;;;;4.22;2.42;;;24.40;1.00;;;;;;5038207;28;20518;-80
2023/09/01 12:06:30;;;;;;;5.97;2.55;;;24.50;1.00;;;;;;5018817;28;20456;-80
2023/09/01 12:09:16;;;;;;;6.25;2.90;;;24.60;1.00;;;;;;5041307;28;20431;-80
2023/09/01 12:12:02;;;;;;;8.13;3.10;;;24.60;1.00;;;;;;5024995;28;20048;-81
2023/09/01 12:14:30;;;;;;;4.93;2.63;;;24.60;1.00;;;;;;5037018;28;20113;-79
2023/09/01 12:16:57;;;;;;;7.88;2.92;;;24.70;1.00;;;;;;5036464;28;20055;-80
2023/09/01 12:19:24;;;;;;;6.75;2.65;;;24.90;1.00;;;;;;5041791;28;20045;-81
2023/09/01 12:21:57;;;;;;;8.50;3.28;;;25.10;1.00;;;;;;5019206;28;20079;-81
2023/09/01 12:24:23;;;;;;;6.20;2.50;;;25.20;1.00;;;;;;5041127;28;20053;-80
2023/09/01 12:26:50;;;;;;;5.22;2.40;;;25.10;1.00;;;;;;5036282;28;20438;-81
2023/09/01 12:29:16;;;;;;;6.82;2.75;;;25.10;1.00;;;;;;5019039;28;20064;-80
2023/09/01 12:31:44;;;;;;;4.72;2.25;;;25.20;1.00;;;;;;5055695;28;20066;-81
2023/09/01 12:34:10;;;;;;;5.75;2.28;;;25.20;1.00;;;;;;5036230;28;20387;-81
2023/09/01 12:36:36;;;;;;;5.78;2.70;;;25.10;1.00;;;;;;5003934;28;20041;-80
2023/09/01 12:39:02;;;;;;;6.57;2.80;;;24.90;1.00;;;;;;5053216;28;20051;-80
2023/09/01 12:41:32;;;;;;;5.43;2.28;;;24.80;1.00;;;;;;5037320;28;20051;-80
2023/09/01 12:43:58;;;;;;;5.60;2.50;;;24.70;1.00;;;;;;5036036;28;20252;-80
2023/09/01 12:46:24;;;;;;;5.53;2.70;;;24.70;1.00;;;;;;5051700;28;20048;-80
2023/09/01 12:48:50;;;;;;;5.30;2.88;;;24.70;1.00;;;;;;5022920;28;20052;-81
2023/09/01 12:51:15;;;;;;;7.30;2.85;;;24.70;1.00;;;;;;5039868;28;20440;-80
2023/09/01 12:53:41;;;;;;;6.15;2.40;;;24.80;1.00;;;;;;5055039;28;20047;-80
2023/09/01 12:56:10;;;;;;;5.75;2.22;;;24.90;1.00;;;;;;5033246;28;20131;-80